Time;durP1;ratioP1;P1;durP2;ratioP2;P2;SDS_P1;SDS_P2;PMS_P1;PMS_P2;Temp;Humidity;BMP_temperature;BMP_pressure;BME280_temperature;BME280_humidity;BME280_pressure;Samples;Min_cycle;Max_cycle;Signal;HPM_P1;HPM_P2
2022/03/21 00:00:09;;;;;;;29.55;16.85;;;;;;;-0.79;100.00;94222.69;2073015;28;20530;-84
2022/03/21 00:01:16;;;;;;;25.30;16.25;;;;;;;-0.73;100.00;94220.66;2073420;28;20030;-85
2022/03/21 00:02:17;;;;;;;24.85;14.90;;;;;;;-0.66;100.00;94222.75;2080331;28;20029;-85
2022/03/21 00:03:20;;;;;;;22.98;14.95;;;;;;;-0.67;100.00;94222.00;2073553;28;20546;-84
2022/03/21 00:04:22;;;;;;;29.13;15.85;;;;;;;-0.68;100.00;94220.47;2060035;28;20019;-85
2022/03/21 00:05:23;;;;;;;25.73;15.40;;;;;;;-0.73;100.00;94218.00;2069115;28;20025;-84
2022/03/21 00:06:24;;;;;;;21.30;15.23;;;;;;;-0.82;100.00;94222.53;2065240;28;20022;-83
2022/03/21 00:07:35;;;;;;;21.42;14.88;;;;;;;-0.87;100.00;94218.25;2058321;28;20483;-85
2022/03/21 00:08:37;;;;;;;22.98;15.75;;;;;;;-0.84;100.00;94220.22;2079344;28;20044;-86
2022/03/21 00:09:38;;;;;;;21.90;14.30;;;;;;;-0.77;100.00;94223.13;2073313;28;20652;-84
2022/03/21 00:10:40;;;;;;;22.55;14.98;;;;;;;-0.84;100.00;94222.84;2065365;28;20036;-84
2022/03/21 00:11:41;;;;;;;23.77;15.68;;;;;;;-0.88;100.00;94214.09;2069943;28;20414;-85
2022/03/21 00:12:42;;;;;;;25.45;15.15;;;;;;;-0.88;100.00;94223.78;2057162;28;20487;-85
2022/03/21 00:13:43;;;;;;;26.27;14.82;;;;;;;-0.83;100.00;94221.78;2071364;28;20068;-84
2022/03/21 00:14:44;;;;;;;25.73;14.85;;;;;;;-0.70;100.00;94232.34;2061933;28;20050;-84
2022/03/21 00:15:47;;;;;;;24.80;15.05;;;;;;;-0.63;100.00;94233.41;2063493;28;20459;-85
2022/03/21 00:16:48;;;;;;;23.67;15.18;;;;;;;-0.68;100.00;94222.31;2067922;28;20030;-85
2022/03/21 00:17:49;;;;;;;25.80;15.43;;;;;;;-0.75;100.00;94222.78;2066500;28;20157;-86
2022/03/21 00:18:51;;;;;;;22.13;14.88;;;;;;;-0.85;100.00;94223.16;2068029;28;20382;-84
2022/03/21 00:19:52;;;;;;;19.77;14.27;;;;;;;-0.82;100.00;94222.53;2065410;28;20036;-86
2022/03/21 00:20:55;;;;;;;21.67;14.07;;;;;;;-0.82;100.00;94225.16;2066435;28;20077;-86
2022/03/21 00:21:56;;;;;;;23.25;14.30;;;;;;;-0.90;100.00;94218.88;2061594;28;20026;-86
2022/03/21 00:22:57;;;;;;;21.02;14.15;;;;;;;-0.82;100.00;94225.16;2059129;28;20153;-85
2022/03/21 00:23:58;;;;;;;20.70;14.45;;;;;;;-0.83;100.00;94221.00;2056938;28;20031;-85
2022/03/21 00:24:59;;;;;;;22.10;14.55;;;;;;;-0.75;100.00;94222.78;2057427;28;20050;-86
2022/03/21 00:26:01;;;;;;;20.05;13.73;;;;;;;-0.84;100.00;94222.06;2066422;28;20085;-85
2022/03/21 00:27:02;;;;;;;21.27;13.68;;;;;;;-0.82;100.00;94222.53;2078819;28;20018;-84
2022/03/21 00:28:05;;;;;;;18.13;13.30;;;;;;;-0.89;100.00;94223.03;2071954;28;20026;-83
2022/03/21 00:29:07;;;;;;;20.92;13.43;;;;;;;-0.82;100.00;94218.06;2067014;28;20026;-85
2022/03/21 00:30:09;;;;;;;20.95;13.13;;;;;;;-0.85;100.00;94221.31;2065440;28;20056;-84
2022/03/21 00:31:10;;;;;;;19.75;12.95;;;;;;;-0.87;100.00;94220.09;2062264;28;20022;-86
2022/03/21 00:32:11;;;;;;;18.17;12.88;;;;;;;-0.92;100.00;94221.03;2062426;28;20073;-84
2022/03/21 00:33:13;;;;;;;18.10;12.65;;;;;;;-1.03;100.00;94215.38;2065259;28;20041;-84
2022/03/21 00:34:14;;;;;;;18.58;13.85;;;;;;;-0.99;100.00;94220.75;2070740;28;20036;-84
2022/03/21 00:35:15;;;;;;;19.58;12.85;;;;;;;-1.00;100.00;94218.47;2064930;28;20033;-84
2022/03/21 00:36:22;;;;;;;18.05;12.60;;;;;;;-0.92;100.00;94223.66;2056567;28;20030;-83
2022/03/21 00:37:24;;;;;;;18.63;12.63;;;;;;;-0.92;100.00;94215.00;2059184;28;20069;-84
2022/03/21 00:38:26;;;;;;;18.80;12.70;;;;;;;-0.95;100.00;94219.03;2071435;28;20026;-84
2022/03/21 00:39:27;;;;;;;17.15;12.88;;;;;;;-1.06;100.00;94221.22;2058591;28;20146;-85
2022/03/21 00:40:31;;;;;;;19.30;12.63;;;;;;;-1.07;100.00;94222.31;2065518;28;20043;-84
2022/03/21 00:41:33;;;;;;;17.52;12.18;;;;;;;-1.04;100.00;94216.44;2079775;28;20083;-86
2022/03/21 00:42:35;;;;;;;20.83;13.45;;;;;;;-1.10;100.00;94217.72;2070948;28;20116;-84
2022/03/21 00:43:36;;;;;;;18.33;13.27;;;;;;;-1.04;100.00;94216.44;2072260;28;20136;-84
2022/03/21 00:44:37;;;;;;;19.15;12.73;;;;;;;-0.98;100.00;94218.91;2056840;28;20479;-85
2022/03/21 00:45:39;;;;;;;18.55;12.55;;;;;;;-0.94;100.00;94217.94;2061578;28;20109;-84
2022/03/21 00:46:40;;;;;;;17.92;12.30;;;;;;;-0.99;100.00;94225.25;2061835;28;20080;-85
2022/03/21 00:47:42;;;;;;;15.90;12.50;;;;;;;-1.00;100.00;94219.22;2060666;28;20543;-85
2022/03/21 00:48:43;;;;;;;19.52;13.13;;;;;;;-1.04;100.00;94226.94;2069974;28;20026;-83
2022/03/21 00:49:44;;;;;;;16.70;12.00;;;;;;;-0.96;100.00;94224.63;2062983;28;20033;-83
2022/03/21 00:50:45;;;;;;;18.10;12.32;;;;;;;-0.93;100.00;94216.09;2057218;28;20444;-85
2022/03/21 00:51:46;;;;;;;16.60;12.25;;;;;;;-1.01;100.00;94228.16;2057544;28;20527;-84
2022/03/21 00:52:50;;;;;;;18.65;12.55;;;;;;;-1.01;100.00;94228.16;2057903;28;20027;-85
2022/03/21 00:53:51;;;;;;;19.70;12.30;;;;;;;-0.97;100.00;94218.56;2066124;28;20030;-85
2022/03/21 00:54:52;;;;;;;19.35;12.25;;;;;;;-0.94;100.00;94225.06;2066033;28;20459;-84
2022/03/21 00:55:53;;;;;;;18.40;12.40;;;;;;;-0.99;100.00;94220.75;2056920;28;20046;-83
2022/03/21 00:56:54;;;;;;;16.42;11.70;;;;;;;-1.08;100.00;94218.16;2057673;28;20030;-85
2022/03/21 00:57:56;;;;;;;17.75;12.18;;;;;;;-0.92;100.00;94223.66;2064940;28;20049;-86
2022/03/21 00:59:00;;;;;;;18.58;12.30;;;;;;;-1.03;100.00;94220.63;2057519;28;20500;-84
2022/03/21 01:00:06;;;;;;;17.65;12.38;;;;;;;-1.02;100.00;94218.75;2065235;28;20018;-84
2022/03/21 01:01:07;;;;;;;18.95;11.77;;;;;;;-1.06;100.00;94220.47;2077195;28;20053;-84
2022/03/21 01:02:08;;;;;;;19.23;12.32;;;;;;;-1.03;100.00;94223.25;2068558;28;20021;-85
2022/03/21 01:03:09;;;;;;;15.20;11.50;;;;;;;-1.08;100.00;94223.41;2066484;28;20010;-85
2022/03/21 01:04:10;;;;;;;16.45;12.15;;;;;;;-0.84;100.00;94214.19;2073114;28;20029;-85
2022/03/21 01:05:12;;;;;;;19.92;12.93;;;;;;;-1.02;100.00;94224.00;2081475;28;20419;-84
2022/03/21 01:06:13;;;;;;;17.25;12.23;;;;;;;-0.97;100.00;94217.81;2077109;28;20021;-83
2022/03/21 01:07:14;;;;;;;16.42;11.85;;;;;;;-0.73;100.00;94210.13;2068927;28;20974;-84
2022/03/21 01:08:15;;;;;;;17.52;11.90;;;;;;;-0.83;100.00;94218.38;2074511;28;20383;-84
2022/03/21 01:09:17;;;;;;;16.67;11.93;;;;;;;-0.93;100.00;94211.63;2067231;28;20038;-84
2022/03/21 01:10:19;;;;;;;21.85;12.63;;;;;;;-1.04;100.00;94218.31;2057326;28;20030;-84
2022/03/21 01:11:22;;;;;;;16.88;12.00;;;;;;;-1.06;100.00;94213.34;2065114;28;20033;-85
2022/03/21 01:12:24;;;;;;;17.02;12.10;;;;;;;-1.07;100.00;94209.22;2072810;28;20052;-84
2022/03/21 01:13:24;;;;;;;17.70;11.85;;;;;;;-1.02;100.00;94211.66;2065089;28;20471;-84
2022/03/21 01:14:26;;;;;;;17.55;11.90;;;;;;;-1.21;100.00;94218.38;2056764;28;20082;-84
2022/03/21 01:15:28;;;;;;;16.38;12.23;;;;;;;-1.19;100.00;94214.34;2064362;28;20037;-85
2022/03/21 01:16:29;;;;;;;16.75;11.98;;;;;;;-1.21;100.00;94208.66;2065834;28;20133;-84
2022/03/21 01:17:30;;;;;;;18.63;13.23;;;;;;;-1.27;100.00;94215.94;2064760;28;20073;-83
2022/03/21 01:18:31;;;;;;;18.92;11.98;;;;;;;-1.20;100.00;94215.44;2056841;28;20094;-85
2022/03/21 01:19:34;;;;;;;17.67;12.65;;;;;;;-1.19;100.00;94210.94;2071181;28;20395;-86
2022/03/21 01:20:35;;;;;;;18.83;13.18;;;;;;;-1.18;100.00;94210.66;2066097;28;20037;-85
2022/03/21 01:21:36;;;;;;;15.90;11.95;;;;;;;-1.17;100.00;94208.78;2079202;28;20930;-84
2022/03/21 01:22:37;;;;;;;17.92;13.15;;;;;;;-1.19;100.00;94216.97;2070709;28;20491;-86
2022/03/21 01:23:39;;;;;;;17.80;11.93;;;;;;;-1.04;100.00;94213.06;2080708;28;20436;-85
2022/03/21 01:24:40;;;;;;;19.25;13.43;;;;;;;-0.98;100.00;94213.66;2072442;28;20030;-84
2022/03/21 01:25:41;;;;;;;15.82;12.23;;;;;;;-1.13;100.00;94222.81;2064728;28;20022;-84
2022/03/21 01:26:42;;;;;;;21.23;13.10;;;;;;;-1.17;100.00;94216.66;2069813;28;20060;-84
2022/03/21 01:27:43;;;;;;;18.25;12.68;;;;;;;-1.23;100.00;94210.03;2072493;28;20053;-86
2022/03/21 01:28:44;;;;;;;16.70;12.93;;;;;;;-1.33;100.00;94205.91;2064569;28;20755;-86
2022/03/21 01:29:45;;;;;;;16.13;11.98;;;;;;;-1.30;100.00;94208.66;2064709;28;20056;-83
2022/03/21 01:30:45;;;;;;;17.17;12.13;;;;;;;-1.29;100.00;94204.19;2072841;28;20723;-85
2022/03/21 01:31:47;;;;;;;18.60;12.25;;;;;;;-1.38;100.00;94206.06;2080139;28;20037;-84
2022/03/21 01:32:48;;;;;;;18.88;12.63;;;;;;;-1.35;100.00;94205.47;2078048;28;20017;-86
2022/03/21 01:33:48;;;;;;;15.77;12.43;;;;;;;-1.36;100.00;94206.53;2072780;28;20471;-84
2022/03/21 01:34:49;;;;;;;21.73;12.73;;;;;;;-1.35;100.00;94203.59;2069186;28;20410;-84
2022/03/21 01:35:50;;;;;;;18.80;12.13;;;;;;;-1.42;100.00;94208.53;2064584;28;20045;-85
2022/03/21 01:36:51;;;;;;;15.82;12.00;;;;;;;-1.37;100.00;94210.22;2076370;28;20509;-85
2022/03/21 01:37:53;;;;;;;18.88;12.43;;;;;;;-1.42;100.00;94205.16;2072715;28;20021;-85
2022/03/21 01:38:54;;;;;;;18.80;12.80;;;;;;;-1.45;100.00;94209.16;2069421;28;20026;-84
2022/03/21 01:39:55;;;;;;;17.85;12.27;;;;;;;-1.33;100.00;94211.91;2078352;28;20017;-84
2022/03/21 01:40:56;;;;;;;20.88;12.80;;;;;;;-1.31;100.00;94215.00;2066503;28;20045;-84
2022/03/21 01:41:57;;;;;;;17.58;12.30;;;;;;;-1.36;100.00;94214.38;2062448;28;20406;-84
2022/03/21 01:42:58;;;;;;;15.40;11.82;;;;;;;-1.29;100.00;94215.44;2062666;28;20416;-84
2022/03/21 01:44:06;;;;;;;20.08;12.15;;;;;;;-1.36;100.00;94211.75;2068719;28;20064;-85
2022/03/21 01:45:07;;;;;;;20.33;13.02;;;;;;;-1.40;100.00;94206.41;2058190;28;20037;-84
2022/03/21 01:46:08;;;;;;;19.58;12.95;;;;;;;-1.35;100.00;94210.72;2066703;28;21005;-85
2022/03/21 01:47:09;;;;;;;17.05;12.02;;;;;;;-1.28;100.00;94216.22;2063507;28;20503;-84
2022/03/21 01:48:10;;;;;;;18.10;11.90;;;;;;;-1.05;100.00;94217.53;2064023;28;20069;-83
2022/03/21 01:49:12;;;;;;;16.33;12.27;;;;;;;-1.20;100.00;94215.44;2072690;28;20026;-84
2022/03/21 01:50:13;;;;;;;18.50;12.13;;;;;;;-1.09;100.00;94221.88;2056787;28;20031;-84
2022/03/21 01:51:14;;;;;;;15.88;12.00;;;;;;;-1.11;100.00;94218.78;2056761;28;20053;-83
2022/03/21 01:52:15;;;;;;;19.38;12.52;;;;;;;-1.22;100.00;94208.97;2072119;28;20022;-84
2022/03/21 01:55:58;;;;;;;18.13;12.13;;;;;;;-1.42;100.00;94211.16;2084947;28;20024;-83
2022/03/21 01:56:59;;;;;;;16.38;12.38;;;;;;;-1.43;100.00;94214.13;2065443;28;20460;-83
2022/03/21 01:58:00;;;;;;;20.08;12.95;;;;;;;-1.49;100.00;94213.53;2072891;28;20029;-83
2022/03/21 01:59:02;;;;;;;21.67;13.27;;;;;;;-1.42;100.00;94213.78;2058216;28;20086;-83
2022/03/21 02:00:05;;;;;;;16.88;12.07;;;;;;;-1.47;100.00;94213.19;2067929;28;20023;-84
2022/03/21 02:01:16;;;;;;;17.50;12.85;;;;;;;-1.50;100.00;94219.06;2081595;28;20113;-84
2022/03/21 02:02:17;;;;;;;17.25;12.88;;;;;;;-1.55;100.00;94215.50;2066577;28;20026;-84
2022/03/21 02:03:22;;;;;;;17.73;11.70;;;;;;;-1.52;100.00;94214.13;2079960;28;20048;-84
2022/03/21 02:04:24;;;;;;;17.80;12.82;;;;;;;-1.52;100.00;94216.75;2077531;28;20109;-85
2022/03/21 02:05:27;;;;;;;19.58;13.13;;;;;;;-1.52;100.00;94212.28;2067535;28;20048;-84
2022/03/21 02:06:28;;;;;;;17.17;12.57;;;;;;;-1.54;100.00;94211.84;2079048;28;20029;-83
2022/03/21 02:07:29;;;;;;;17.58;12.85;;;;;;;-1.54;100.00;94214.47;2071611;28;20030;-83
2022/03/21 02:08:30;;;;;;;18.80;13.20;;;;;;;-1.51;100.00;94215.66;2065307;28;20049;-84
2022/03/21 02:09:31;;;;;;;16.65;12.57;;;;;;;-1.54;100.00;94211.03;2072834;28;20402;-83
2022/03/21 02:12:08;;;;;;;19.50;12.13;;;;;;;-1.58;100.00;94207.50;2133128;27;20175;-82
2022/03/21 02:13:10;;;;;;;17.45;12.20;;;;;;;-1.40;100.00;94209.03;2113592;28;20602;-83
2022/03/21 02:14:11;;;;;;;18.85;11.85;;;;;;;-1.43;100.00;94211.50;2096125;28;20052;-82
2022/03/21 02:15:12;;;;;;;16.38;12.38;;;;;;;-1.33;100.00;94205.91;2098367;28;20032;-82
2022/03/21 02:16:13;;;;;;;23.00;13.00;;;;;;;-1.39;100.00;94204.53;2095837;28;20021;-82
2022/03/21 02:17:23;;;;;;;18.52;12.30;;;;;;;-1.34;100.00;94207.00;2095398;28;20041;-82
2022/03/21 02:18:26;;;;;;;18.02;12.13;;;;;;;-1.44;100.00;94197.63;2097966;28;20029;-82
2022/03/21 02:19:38;;;;;;;17.15;12.65;;;;;;;-1.51;100.00;94202.56;2104876;28;20024;-83
2022/03/21 02:20:41;;;;;;;15.65;11.38;;;;;;;-1.36;100.00;94203.91;2108037;28;20298;-82
2022/03/21 02:22:19;;;;;;;18.40;11.80;;;;;;;-1.34;100.00;94202.50;2104336;28;20040;-83
2022/03/21 02:23:32;;;;;;;16.40;11.35;;;;;;;-1.39;100.00;94200.06;2106037;28;20170;-83
2022/03/21 02:25:06;;;;;;;20.25;12.00;;;;;;;-1.38;100.00;94198.97;2105507;28;20070;-83
2022/03/21 02:26:10;;;;;;;17.77;11.15;;;;;;;-1.31;100.00;94190.63;2107707;28;20016;-82
2022/03/21 02:27:12;;;;;;;18.05;11.60;;;;;;;-1.41;100.00;94190.97;2096672;28;20400;-82
2022/03/21 02:28:16;;;;;;;19.00;11.95;;;;;;;-1.42;100.00;94190.19;2096262;28;20112;-82
2022/03/21 02:29:18;;;;;;;17.10;12.45;;;;;;;-1.45;100.00;94188.19;2100610;28;20400;-82
2022/03/21 02:30:19;;;;;;;18.35;12.23;;;;;;;-1.54;100.00;94192.69;2104952;28;20567;-81
2022/03/21 02:31:21;;;;;;;16.95;11.90;;;;;;;-1.62;100.00;94191.66;2109329;28;20027;-83
2022/03/21 02:32:22;;;;;;;17.15;12.18;;;;;;;-1.50;100.00;94200.69;2112745;28;20658;-83
2022/03/21 02:33:24;;;;;;;16.17;11.82;;;;;;;-1.49;100.00;94197.00;2103037;28;20028;-82
2022/03/21 02:34:26;;;;;;;15.55;11.68;;;;;;;-1.61;100.00;94189.78;2089710;28;20158;-82
2022/03/21 02:35:28;;;;;;;19.90;12.60;;;;;;;-1.67;100.00;94197.03;2096347;28;20119;-83
2022/03/21 02:36:32;;;;;;;15.38;11.75;;;;;;;-1.62;100.00;94188.25;2095568;28;20021;-82
2022/03/21 02:37:34;;;;;;;19.15;12.57;;;;;;;-1.40;100.00;94195.16;2105067;28;20023;-83
2022/03/21 02:38:36;;;;;;;17.38;12.60;;;;;;;-1.46;100.00;94199.00;2112699;28;20027;-81
2022/03/21 02:39:38;;;;;;;18.13;13.13;;;;;;;-1.49;100.00;94191.75;2104499;28;20431;-83
2022/03/21 02:40:39;;;;;;;17.33;11.82;;;;;;;-1.46;100.00;94188.50;2106938;28;20027;-83
2022/03/21 02:41:40;;;;;;;16.63;12.40;;;;;;;-1.57;100.00;94196.72;2104124;28;20028;-83
2022/03/21 02:42:43;;;;;;;18.40;13.13;;;;;;;-1.38;100.00;94198.22;2103881;28;20086;-83
2022/03/21 02:43:50;;;;;;;16.05;12.02;;;;;;;-1.38;100.00;94193.72;2096235;28;20099;-82
2022/03/21 02:44:51;;;;;;;18.73;13.18;;;;;;;-1.46;100.00;94191.91;2097743;28;20643;-82
2022/03/21 02:45:52;;;;;;;18.42;12.57;;;;;;;-1.53;100.00;94195.03;2095921;28;20083;-82
2022/03/21 02:46:55;;;;;;;18.05;13.32;;;;;;;-1.52;100.00;94195.78;2104252;28;20043;-83
2022/03/21 02:47:56;;;;;;;16.98;12.45;;;;;;;-1.47;100.00;94190.38;2103595;28;20023;-83
2022/03/21 02:48:58;;;;;;;18.90;13.00;;;;;;;-1.59;100.00;94195.47;2102356;28;20020;-84
2022/03/21 02:50:01;;;;;;;18.92;13.35;;;;;;;-1.60;100.00;94199.97;2096049;28;20017;-83
2022/03/21 02:51:03;;;;;;;16.20;12.43;;;;;;;-1.64;100.00;94200.88;2096131;28;20112;-83
2022/03/21 02:52:05;;;;;;;18.15;11.98;;;;;;;-1.51;100.00;94205.19;2093582;28;20021;-82
2022/03/21 02:53:09;;;;;;;16.70;12.10;;;;;;;-1.41;100.00;94196.97;2092649;28;20036;-83
2022/03/21 02:54:11;;;;;;;16.75;12.45;;;;;;;-1.41;100.00;94191.72;2103365;28;20020;-81
2022/03/21 02:55:12;;;;;;;19.33;12.10;;;;;;;-1.38;100.00;94200.84;2112422;28;20061;-82
2022/03/21 02:56:12;;;;;;;17.70;12.88;;;;;;;-1.51;100.00;94202.56;2103860;28;20021;-81
2022/03/21 02:57:13;;;;;;;18.80;12.75;;;;;;;-1.63;100.00;94199.81;2104169;28;20031;-82
2022/03/21 02:58:14;;;;;;;19.73;12.98;;;;;;;-1.73;100.00;94198.28;2096089;28;20104;-83
2022/03/21 02:59:16;;;;;;;15.98;12.30;;;;;;;-1.58;100.00;94200.44;2107363;28;20024;-81
2022/03/21 03:00:17;;;;;;;16.13;12.43;;;;;;;-1.56;100.00;94200.09;2095600;28;20028;-81
2022/03/21 03:01:18;;;;;;;16.90;12.60;;;;;;;-1.55;100.00;94202.41;2103938;28;20426;-82
2022/03/21 03:02:20;;;;;;;20.48;13.00;;;;;;;-1.64;100.00;94201.66;2104259;28;20024;-82
2022/03/21 03:03:20;;;;;;;18.88;12.68;;;;;;;-1.71;100.00;94204.00;2095778;28;20020;-83
2022/03/21 03:04:25;;;;;;;17.52;12.63;;;;;;;-1.67;100.00;94198.88;2095440;28;20108;-83
2022/03/21 03:05:26;;;;;;;17.73;12.52;;;;;;;-1.65;100.00;94197.50;2098427;28;20162;-81
2022/03/21 03:06:27;;;;;;;18.52;12.23;;;;;;;-1.63;100.00;94199.81;2112243;28;20073;-82
2022/03/21 03:07:28;;;;;;;18.23;12.88;;;;;;;-1.70;100.00;94197.69;2103981;28;20062;-84
2022/03/21 03:08:31;;;;;;;18.50;12.48;;;;;;;-1.64;100.00;94203.50;2095103;28;20032;-82
2022/03/21 03:09:32;;;;;;;17.25;12.43;;;;;;;-1.77;100.00;94190.28;2093885;28;20494;-83
2022/03/21 03:10:32;;;;;;;18.65;12.95;;;;;;;-1.73;100.00;94202.75;2087319;28;20025;-82
2022/03/21 03:11:37;;;;;;;17.23;12.65;;;;;;;-1.66;100.00;94197.81;2087087;28;20482;-83
2022/03/21 03:12:38;;;;;;;19.85;13.18;;;;;;;-1.63;100.00;94199.81;2088018;28;20028;-84
2022/03/21 03:13:41;;;;;;;20.35;13.13;;;;;;;-1.53;100.00;94196.88;2095491;28;20520;-84
2022/03/21 03:14:42;;;;;;;18.67;12.32;;;;;;;-1.60;100.00;94197.34;2091013;28;20087;-84
2022/03/21 03:15:43;;;;;;;21.33;13.02;;;;;;;-1.66;100.00;94197.81;2095626;28;20021;-81
2022/03/21 03:16:44;;;;;;;17.30;12.82;;;;;;;-1.60;100.00;94196.56;2095317;28;20516;-84
2022/03/21 03:17:45;;;;;;;18.52;12.40;;;;;;;-1.58;100.00;94200.44;2095606;28;20394;-82
2022/03/21 03:18:46;;;;;;;19.42;13.40;;;;;;;-1.62;100.00;94204.75;2095531;28;20035;-82
2022/03/21 03:19:47;;;;;;;19.10;12.65;;;;;;;-1.59;100.00;94201.50;2095636;28;20028;-82
2022/03/21 03:20:53;;;;;;;16.63;11.82;;;;;;;-1.54;100.00;94206.59;2095115;28;20486;-81
2022/03/21 03:21:56;;;;;;;18.52;12.15;;;;;;;-1.60;100.00;94199.97;2088748;28;20021;-82
2022/03/21 03:23:00;;;;;;;18.80;12.45;;;;;;;-1.68;100.00;94202.59;2085664;28;20021;-82
2022/03/21 03:24:02;;;;;;;18.40;13.32;;;;;;;-1.77;100.00;94207.84;2090253;28;20059;-83
2022/03/21 03:25:04;;;;;;;17.40;12.65;;;;;;;-1.63;100.00;94203.19;2083553;28;20025;-81
2022/03/21 03:26:05;;;;;;;18.17;12.10;;;;;;;-1.61;100.00;94201.03;2083375;28;20402;-83
2022/03/21 03:27:06;;;;;;;18.88;12.50;;;;;;;-1.54;100.00;94206.59;2081757;28;20116;-83
2022/03/21 03:28:07;;;;;;;18.67;12.55;;;;;;;-1.55;100.00;94212.13;2088170;28;20051;-82
2022/03/21 03:29:08;;;;;;;17.38;12.05;;;;;;;-1.59;100.00;94205.97;2089978;28;20035;-82
2022/03/21 03:30:09;;;;;;;20.15;13.45;;;;;;;-1.44;100.00;94209.97;2098263;28;20027;-82
2022/03/21 03:31:13;;;;;;;19.38;12.85;;;;;;;-1.56;100.00;94213.97;2089947;28;20114;-82
2022/03/21 03:32:14;;;;;;;18.17;12.93;;;;;;;-1.60;100.00;94223.53;2090859;28;20082;-83
2022/03/21 03:33:15;;;;;;;17.95;13.13;;;;;;;-1.68;100.00;94211.22;2087506;28;20174;-83
2022/03/21 03:34:17;;;;;;;19.08;13.40;;;;;;;-1.77;100.00;94213.84;2089968;28;20024;-83
2022/03/21 03:35:18;;;;;;;18.52;13.05;;;;;;;-1.69;100.00;94222.78;2098250;28;20027;-83
2022/03/21 03:36:22;;;;;;;21.85;13.32;;;;;;;-1.66;100.00;94209.06;2084881;28;20013;-82
2022/03/21 03:37:23;;;;;;;18.83;12.85;;;;;;;-1.65;100.00;94217.72;2091864;28;20025;-83
2022/03/21 03:38:24;;;;;;;19.10;12.80;;;;;;;-1.79;100.00;94220.50;2086841;28;20029;-83
2022/03/21 03:39:26;;;;;;;17.30;12.88;;;;;;;-1.78;100.00;94222.03;2089925;28;20024;-82
2022/03/21 03:40:27;;;;;;;16.48;12.85;;;;;;;-1.87;100.00;94221.28;2073790;28;20029;-81
2022/03/21 03:41:28;;;;;;;18.17;12.80;;;;;;;-1.91;100.00;94228.22;2081268;28;20033;-84
2022/03/21 03:42:29;;;;;;;19.60;13.02;;;;;;;-1.88;100.00;94219.75;2089817;28;20107;-82
2022/03/21 03:43:31;;;;;;;17.35;12.98;;;;;;;-1.76;100.00;94227.72;2089861;28;20082;-81
2022/03/21 03:44:32;;;;;;;15.32;12.07;;;;;;;-1.70;100.00;94226.50;2089554;28;20152;-82
2022/03/21 03:45:32;;;;;;;18.48;13.20;;;;;;;-1.77;100.00;94231.44;2081479;28;20101;-83
2022/03/21 03:46:34;;;;;;;16.83;12.57;;;;;;;-1.54;100.00;94226.78;2088761;28;20082;-81
2022/03/21 03:47:35;;;;;;;20.05;13.32;;;;;;;-1.50;100.00;94227.69;2081783;28;20025;-81
2022/03/21 03:48:36;;;;;;;16.95;12.68;;;;;;;-1.60;100.00;94223.53;2081167;28;20033;-81
2022/03/21 03:49:37;;;;;;;19.27;13.55;;;;;;;-1.67;100.00;94233.72;2090147;28;20025;-83
2022/03/21 03:50:38;;;;;;;17.67;12.35;;;;;;;-1.63;100.00;94232.03;2098155;28;20021;-82
2022/03/21 03:51:39;;;;;;;17.45;13.15;;;;;;;-1.66;100.00;94237.13;2097838;28;20051;-83
2022/03/21 03:52:40;;;;;;;17.83;13.60;;;;;;;-1.78;100.00;94235.91;2089784;28;20024;-83
2022/03/21 03:53:42;;;;;;;18.67;13.63;;;;;;;-1.89;100.00;94237.31;2090057;28;20450;-82
2022/03/21 03:54:51;;;;;;;18.45;12.95;;;;;;;-1.85;100.00;94248.69;2094031;28;20024;-83
2022/03/21 03:55:52;;;;;;;19.52;12.82;;;;;;;-1.91;100.00;94243.94;2083794;28;20025;-82
2022/03/21 03:56:53;;;;;;;18.33;12.60;;;;;;;-1.96;100.00;94231.75;2095428;28;20124;-83
2022/03/21 03:57:54;;;;;;;17.85;12.73;;;;;;;-1.92;100.00;94247.63;2094853;28;20012;-83
2022/03/21 03:58:55;;;;;;;18.02;13.10;;;;;;;-1.86;100.00;94239.28;2081614;28;20088;-82
2022/03/21 03:59:56;;;;;;;17.17;12.80;;;;;;;-1.79;100.00;94236.22;2089232;28;20021;-81
2022/03/21 04:00:57;;;;;;;17.60;12.55;;;;;;;-1.70;100.00;94241.47;2089877;28;20390;-82
2022/03/21 04:01:57;;;;;;;20.58;12.20;;;;;;;-1.70;100.00;94247.47;2089298;28;20017;-81
2022/03/21 04:04:19;;;;;;;18.20;13.07;;;;;;;-1.72;100.00;94243.59;2092973;28;20088;-80
2022/03/21 04:05:21;;;;;;;18.15;13.05;;;;;;;-1.61;100.00;94239.59;2089944;28;20537;-82
2022/03/21 04:06:23;;;;;;;19.55;12.55;;;;;;;-1.66;100.00;94235.28;2089641;28;20029;-83
2022/03/21 04:07:24;;;;;;;15.30;12.50;;;;;;;-1.71;100.00;94234.66;2098137;28;20029;-83
2022/03/21 04:08:25;;;;;;;17.25;13.30;;;;;;;-1.56;100.00;94239.44;2097883;28;20055;-82
2022/03/21 04:09:26;;;;;;;17.20;13.07;;;;;;;-1.55;100.00;94238.34;2089519;28;20036;-83
2022/03/21 04:10:27;;;;;;;16.58;12.75;;;;;;;-1.58;100.00;94238.97;2081577;28;20021;-81
2022/03/21 04:11:28;;;;;;;17.92;12.57;;;;;;;-1.60;100.00;94236.66;2089492;28;20419;-81
2022/03/21 04:12:29;;;;;;;19.08;13.45;;;;;;;-1.61;100.00;94236.97;2089095;28;20378;-81
2022/03/21 04:13:31;;;;;;;15.95;12.30;;;;;;;-1.66;100.00;94237.13;2081447;28;20033;-81
2022/03/21 04:14:32;;;;;;;17.80;12.88;;;;;;;-1.71;100.00;94232.84;2081321;28;20025;-80
2022/03/21 04:15:33;;;;;;;17.00;13.00;;;;;;;-1.78;100.00;94235.91;2091903;28;20032;-82
2022/03/21 04:16:35;;;;;;;16.35;12.50;;;;;;;-1.67;100.00;94236.34;2095872;28;20400;-81
2022/03/21 04:17:36;;;;;;;17.73;12.88;;;;;;;-1.65;100.00;94233.44;2082157;28;20034;-83
2022/03/21 04:18:38;;;;;;;17.52;12.73;;;;;;;-1.63;100.00;94233.88;2083935;28;20111;-82
2022/03/21 04:19:39;;;;;;;18.60;13.00;;;;;;;-1.66;100.00;94234.53;2081519;28;20025;-81
2022/03/21 04:20:40;;;;;;;19.05;13.38;;;;;;;-1.59;100.00;94230.31;2081463;28;20017;-82
2022/03/21 04:21:41;;;;;;;19.08;12.38;;;;;;;-1.66;100.00;94232.66;2084404;28;20017;-82
2022/03/21 04:22:42;;;;;;;19.13;13.07;;;;;;;-1.56;100.00;94234.19;2096789;28;20024;-83
2022/03/21 04:23:43;;;;;;;15.77;12.48;;;;;;;-1.52;100.00;94224.63;2089383;28;20023;-81
2022/03/21 04:24:44;;;;;;;18.10;12.85;;;;;;;-1.63;100.00;94228.63;2078682;28;20018;-82
2022/03/21 04:25:46;;;;;;;19.08;13.48;;;;;;;-1.59;100.00;94230.31;2081337;28;20072;-81
2022/03/21 04:26:47;;;;;;;17.85;13.40;;;;;;;-1.64;100.00;94229.72;2089360;28;20070;-82
2022/03/21 04:27:48;;;;;;;19.23;12.52;;;;;;;-1.67;100.00;94233.72;2097439;28;20028;-81
2022/03/21 04:28:50;;;;;;;18.92;13.48;;;;;;;-1.65;100.00;94236.06;2093244;28;20107;-81
2022/03/21 04:29:51;;;;;;;17.98;13.45;;;;;;;-1.71;100.00;94239.91;2081266;28;20021;-82
2022/03/21 04:30:52;;;;;;;17.40;12.10;;;;;;;-1.74;100.00;94235.28;2090650;28;20020;-83
2022/03/21 04:31:53;;;;;;;16.30;13.02;;;;;;;-1.63;100.00;94244.38;2079214;28;20363;-82
2022/03/21 04:32:54;;;;;;;19.88;13.25;;;;;;;-1.61;100.00;94242.22;2081043;28;20104;-83
2022/03/21 04:33:55;;;;;;;17.15;12.68;;;;;;;-1.61;100.00;94242.97;2094379;28;20028;-82
2022/03/21 04:34:56;;;;;;;16.15;12.50;;;;;;;-1.64;100.00;94243.59;2090633;28;20037;-82
2022/03/21 04:35:57;;;;;;;16.77;12.20;;;;;;;-1.70;100.00;94244.84;2084549;28;20021;-81
2022/03/21 04:36:58;;;;;;;18.48;13.60;;;;;;;-1.56;100.00;94242.06;2089273;28;20044;-83
2022/03/21 04:37:59;;;;;;;18.77;13.00;;;;;;;-1.46;100.00;94240.94;2089084;28;20608;-83
2022/03/21 04:39:00;;;;;;;18.23;12.70;;;;;;;-1.47;100.00;94242.03;2091668;28;20025;-82
2022/03/21 04:40:01;;;;;;;17.95;13.43;;;;;;;-1.54;100.00;94239.88;2082532;28;20078;-82
2022/03/21 04:41:02;;;;;;;15.10;12.82;;;;;;;-1.62;100.00;94246.69;2095380;28;20051;-81
2022/03/21 04:42:03;;;;;;;17.42;12.57;;;;;;;-1.59;100.00;94243.44;2089946;28;20112;-83
2022/03/21 04:43:04;;;;;;;18.48;13.05;;;;;;;-1.57;100.00;94246.53;2088725;28;20120;-83
2022/03/21 04:44:05;;;;;;;20.85;13.18;;;;;;;-1.53;100.00;94238.81;2089114;28;20144;-82
2022/03/21 04:45:06;;;;;;;16.98;12.73;;;;;;;-1.59;100.00;94242.66;2088865;28;20767;-81
2022/03/21 04:46:08;;;;;;;16.92;13.20;;;;;;;-1.54;100.00;94243.28;2089155;28;20017;-82
2022/03/21 04:47:09;;;;;;;17.25;12.40;;;;;;;-1.54;100.00;94245.91;2089100;28;20032;-82